createdAt,value
2018-08-09T00:00:06.942Z,56.28
2018-08-09T00:02:11.805Z,55.75
2018-08-09T00:04:16.622Z,56.01
2018-08-09T00:06:21.391Z,56.66
2018-08-09T00:08:27.059Z,56.15
2018-08-09T00:10:31.999Z,56.13
2018-08-09T00:12:36.917Z,56.37
2018-08-09T00:14:41.804Z,56.37
2018-08-09T00:16:46.692Z,56.64
2018-08-09T00:18:51.460Z,56.30
2018-08-09T00:20:56.598Z,56.35
2018-08-09T00:23:01.552Z,56.77
2018-08-09T00:25:07.236Z,56.46
2018-08-09T00:27:12.175Z,56.23
2018-08-09T00:29:16.977Z,56.25
2018-08-09T00:31:21.669Z,56.22
2018-08-09T00:33:26.596Z,56.68
2018-08-09T00:35:31.363Z,56.24
2018-08-09T00:37:36.130Z,56.75
2018-08-09T00:39:41.045Z,57.03
2018-08-09T00:41:45.932Z,56.10
2018-08-09T00:43:50.703Z,56.95
2018-08-09T00:45:55.576Z,56.29
2018-08-09T00:48:00.537Z,55.80
2018-08-09T00:50:05.937Z,56.00
2018-08-09T00:52:10.762Z,55.73
2018-08-09T00:54:15.572Z,56.04
2018-08-09T00:56:20.270Z,56.08
2018-08-09T00:58:25.054Z,56.69
2018-08-09T01:00:29.780Z,56.54
2018-08-09T01:02:34.702Z,56.41
2018-08-09T01:04:39.627Z,56.72
2018-08-09T01:06:44.585Z,56.77
2018-08-09T01:08:54.648Z,56.34
2018-08-09T01:10:59.534Z,56.58
2018-08-09T01:13:05.018Z,56.36
2018-08-09T01:15:09.837Z,56.31
2018-08-09T01:17:14.797Z,56.57
2018-08-09T01:19:20.366Z,56.09
2018-08-09T01:21:25.224Z,55.65
2018-08-09T01:23:30.032Z,55.72
2018-08-09T01:25:35.675Z,55.36
2018-08-09T01:27:40.402Z,55.81
2018-08-09T01:29:45.170Z,55.98
2018-08-09T01:31:49.942Z,55.27
2018-08-09T01:33:54.808Z,55.77
2018-08-09T01:35:59.654Z,56.40
2018-08-09T01:38:04.493Z,56.77
2018-08-09T01:40:09.425Z,56.20
2018-08-09T01:42:30.841Z,55.81
2018-08-09T01:44:35.677Z,56.42
2018-08-09T01:46:40.538Z,55.76
2018-08-09T01:48:45.374Z,56.53
2018-08-09T01:50:50.093Z,56.45
2018-08-09T01:52:55.062Z,56.60
2018-08-09T01:54:59.900Z,56.86
2018-08-09T01:57:05.297Z,57.17
2018-08-09T01:59:10.181Z,57.72
2018-08-09T02:01:15.241Z,57.27
2018-08-09T02:03:19.976Z,57.93
2018-08-09T02:05:24.792Z,57.83
2018-08-09T02:07:29.551Z,58.11
2018-08-09T02:09:34.973Z,58.28
2018-08-09T02:11:39.763Z,58.84
2018-08-09T02:13:44.863Z,58.78
2018-08-09T02:15:49.687Z,59.36
2018-08-09T02:17:55.075Z,59.67
2018-08-09T02:19:59.913Z,59.45
2018-08-09T02:22:04.711Z,59.39
2018-08-09T02:24:09.773Z,59.79
2018-08-09T02:26:15.025Z,59.79
2018-08-09T02:28:19.888Z,60.12
2018-08-09T02:30:24.663Z,60.29
2018-08-09T02:32:29.410Z,59.62
2018-08-09T02:34:34.154Z,60.25
2018-08-09T02:36:38.936Z,59.27
2018-08-09T02:38:43.608Z,59.91
2018-08-09T02:40:48.716Z,59.54
2018-08-09T02:42:53.454Z,58.78
2018-08-09T02:44:58.238Z,59.21
2018-08-09T02:47:03.006Z,59.20
2018-08-09T02:49:07.754Z,59.37
2018-08-09T02:51:12.477Z,59.17
2018-08-09T02:53:17.194Z,59.95
2018-08-09T02:55:21.890Z,59.88
2018-08-09T02:57:26.612Z,60.64
2018-08-09T02:59:31.492Z,60.58
2018-08-09T03:01:36.198Z,60.38
2018-08-09T03:03:40.927Z,60.54
2018-08-09T03:05:45.674Z,60.37
2018-08-09T03:07:51.218Z,60.11
2018-08-09T03:09:55.985Z,60.07
2018-08-09T03:12:00.744Z,60.12
2018-08-09T03:14:05.658Z,59.38
2018-08-09T03:16:10.499Z,59.07
2018-08-09T03:18:15.438Z,59.11
2018-08-09T03:20:20.168Z,58.90
2018-08-09T03:22:24.928Z,59.52
2018-08-09T03:24:29.888Z,59.23
2018-08-09T03:26:34.624Z,59.45
2018-08-09T03:28:39.429Z,59.52
2018-08-09T03:30:44.154Z,59.25
2018-08-09T03:32:49.167Z,59.50
2018-08-09T03:34:53.922Z,59.92
2018-08-09T03:36:58.662Z,58.77
2018-08-09T03:39:03.638Z,58.73
2018-08-09T03:41:08.820Z,59.22
2018-08-09T03:43:13.655Z,58.91
2018-08-09T03:45:18.496Z,58.92
2018-08-09T03:47:23.333Z,58.06
2018-08-09T03:49:28.123Z,58.64
2018-08-09T03:51:33.076Z,57.96
2018-08-09T03:53:37.908Z,57.79
2018-08-09T03:55:42.722Z,57.53
2018-08-09T03:57:47.651Z,57.24
2018-08-09T03:59:56.584Z,56.74
2018-08-09T04:02:01.426Z,57.15
2018-08-09T04:04:06.488Z,56.80
2018-08-09T04:06:11.197Z,57.81
2018-08-09T04:08:15.999Z,56.93
2018-08-09T04:10:22.647Z,57.13
2018-08-09T04:12:27.496Z,57.16
2018-08-09T04:14:32.455Z,57.30
2018-08-09T04:16:37.145Z,57.25
2018-08-09T04:18:41.915Z,57.44
2018-08-09T04:20:47.285Z,57.72
2018-08-09T04:22:52.138Z,57.11
2018-08-09T04:24:57.902Z,57.50
2018-08-09T04:27:02.743Z,57.25
2018-08-09T04:29:09.977Z,57.78
2018-08-09T04:31:15.627Z,57.97
2018-08-09T04:33:20.470Z,57.84
2018-08-09T04:35:25.398Z,57.79
2018-08-09T04:37:30.302Z,57.56
2018-08-09T04:39:35.045Z,57.37
2018-08-09T04:41:39.791Z,57.64
2018-08-09T04:43:44.621Z,57.51
2018-08-09T04:45:49.458Z,57.11
2018-08-09T04:47:54.294Z,57.25
2018-08-09T04:49:59.131Z,57.06
2018-08-09T04:52:03.995Z,56.72
2018-08-09T04:54:08.849Z,56.93
2018-08-09T04:56:13.772Z,56.57
2018-08-09T04:58:18.623Z,57.08
2018-08-09T05:00:23.414Z,57.27
2018-08-09T05:02:28.339Z,56.97
2018-08-09T05:04:33.145Z,57.18
2018-08-09T05:06:37.994Z,57.21
2018-08-09T05:08:42.970Z,56.83
2018-08-09T05:10:47.681Z,56.91
2018-08-09T05:12:52.702Z,56.52
2018-08-09T05:14:57.512Z,56.89
2018-08-09T05:17:02.230Z,56.30
2018-08-09T05:19:06.986Z,56.74
2018-08-09T05:21:11.737Z,56.54
2018-08-09T05:23:16.718Z,56.89
2018-08-09T05:25:21.448Z,56.61
2018-08-09T05:27:26.333Z,56.45
2018-08-09T05:29:31.918Z,57.11
2018-08-09T05:31:38.822Z,56.75
2018-08-09T05:33:44.099Z,56.53
2018-08-09T05:35:48.959Z,57.36
2018-08-09T05:37:53.784Z,56.43
2018-08-09T05:39:58.565Z,57.15
2018-08-09T05:42:03.314Z,56.61
2018-08-09T05:44:08.049Z,56.64
2018-08-09T05:46:12.801Z,56.99
2018-08-09T05:48:17.663Z,57.21
2018-08-09T05:50:22.494Z,58.05
2018-08-09T05:52:27.489Z,58.14
2018-08-09T05:54:32.435Z,57.84
2018-08-09T05:56:37.234Z,57.80
2018-08-09T05:58:46.197Z,57.71
2018-08-09T06:00:51.222Z,57.22
2018-08-09T06:02:56.185Z,57.13
2018-08-09T06:05:01.129Z,57.66
2018-08-09T06:07:06.062Z,56.93
2018-08-09T06:09:12.384Z,57.01
2018-08-09T06:11:17.311Z,56.72
2018-08-09T06:13:22.310Z,56.40
2018-08-09T06:15:27.525Z,55.86
2018-08-09T06:17:32.497Z,56.44
2018-08-09T06:19:37.348Z,55.89
2018-08-09T06:21:42.406Z,55.90
2018-08-09T06:23:47.295Z,54.56
2018-08-09T06:25:52.021Z,55.19
2018-08-09T06:27:57.081Z,55.12
2018-08-09T06:30:01.921Z,55.01
2018-08-09T06:32:07.140Z,55.09
2018-08-09T06:34:11.942Z,55.59
2018-08-09T06:36:16.843Z,55.56
2018-08-09T06:38:21.716Z,55.11
2018-08-09T06:40:26.643Z,55.41
2018-08-09T06:42:31.487Z,55.41
2018-08-09T06:44:36.218Z,56.42
2018-08-09T06:46:43.903Z,56.53
2018-08-09T06:48:48.941Z,56.20
2018-08-09T06:50:53.785Z,55.56
2018-08-09T06:52:59.425Z,55.27
2018-08-09T06:55:04.766Z,56.50
2018-08-09T06:57:09.753Z,55.19
2018-08-09T06:59:14.837Z,54.93
2018-08-09T07:01:19.734Z,55.42
2018-08-09T07:03:24.757Z,54.95
2018-08-09T07:05:29.713Z,55.52
2018-08-09T07:07:34.679Z,54.63
2018-08-09T07:09:40.002Z,54.69
2018-08-09T07:11:44.891Z,54.65
2018-08-09T07:13:50.032Z,53.33
2018-08-09T07:15:54.989Z,52.75
2018-08-09T07:18:00.224Z,53.11
2018-08-09T07:20:07.353Z,53.28
2018-08-09T07:22:12.295Z,53.19
2018-08-09T07:24:17.372Z,52.55
2018-08-09T07:26:22.548Z,52.34
2018-08-09T07:28:27.655Z,51.87
2018-08-09T07:30:32.984Z,52.23
2018-08-09T07:32:37.900Z,51.80
2018-08-09T07:34:42.824Z,51.12
2018-08-09T07:36:47.645Z,51.48
2018-08-09T07:38:52.484Z,51.04
2018-08-09T07:40:57.214Z,49.90
2018-08-09T07:43:02.015Z,50.70
2018-08-09T07:45:09.094Z,50.55
2018-08-09T07:47:13.880Z,51.01
2018-08-09T07:49:18.552Z,50.98
2018-08-09T07:51:23.497Z,50.79
2018-08-09T07:53:28.431Z,50.29
2018-08-09T07:55:33.297Z,50.54
2018-08-09T07:57:38.470Z,51.07
2018-08-09T07:59:46.205Z,50.19
2018-08-09T08:01:50.992Z,48.99
2018-08-09T08:03:55.945Z,48.72
2018-08-09T08:06:00.822Z,48.78
2018-08-09T08:08:05.721Z,49.58
2018-08-09T08:10:11.361Z,50.11
2018-08-09T08:12:16.446Z,50.01
2018-08-09T08:14:21.977Z,50.46
2018-08-09T08:16:26.915Z,48.37
2018-08-09T08:18:31.935Z,49.31
2018-08-09T08:20:36.839Z,49.56
2018-08-09T08:22:41.765Z,49.81
2018-08-09T08:24:46.545Z,49.75
2018-08-09T08:26:51.776Z,49.66
2018-08-09T08:28:56.559Z,50.64
2018-08-09T08:31:01.337Z,50.22
2018-08-09T08:33:06.600Z,49.94
2018-08-09T08:35:12.042Z,49.95
2018-08-09T08:37:16.846Z,49.12
2018-08-09T08:39:22.864Z,49.80
2018-08-09T08:41:27.793Z,48.71
2018-08-09T08:43:32.581Z,48.21
2018-08-09T08:45:37.511Z,48.19
2018-08-09T08:47:42.915Z,48.13
2018-08-09T08:49:47.889Z,48.21
2018-08-09T08:51:53.597Z,47.05
2018-08-09T08:53:58.502Z,47.34
2018-08-09T08:56:03.334Z,47.69
2018-08-09T08:58:08.862Z,47.79
2018-08-09T09:00:14.619Z,48.27
2018-08-09T09:02:19.315Z,47.70
2018-08-09T09:04:24.245Z,48.13
2018-08-09T09:06:29.022Z,48.72
2018-08-09T09:08:33.860Z,47.45
2018-08-09T09:10:39.920Z,48.11
2018-08-09T09:12:44.758Z,47.81
2018-08-09T09:14:50.527Z,47.69
2018-08-09T09:16:55.535Z,46.80
2018-08-09T09:19:00.898Z,47.24
2018-08-09T09:21:05.824Z,46.35
2018-08-09T09:23:10.587Z,46.36
2018-08-09T09:25:15.401Z,47.56
2018-08-09T09:27:20.201Z,46.81
2018-08-09T09:29:25.772Z,46.99
2018-08-09T09:31:31.674Z,45.79
2018-08-09T09:33:36.453Z,45.53
2018-08-09T09:35:41.204Z,46.17
2018-08-09T09:37:46.002Z,45.93
2018-08-09T09:39:50.749Z,45.58
2018-08-09T09:41:55.521Z,46.40
2018-08-09T09:44:00.289Z,46.58
2018-08-09T09:46:05.090Z,47.14
2018-08-09T09:48:09.933Z,47.34
2018-08-09T09:50:18.226Z,46.47
2018-08-09T09:52:23.035Z,46.22
2018-08-09T09:54:27.773Z,45.10
2018-08-09T09:56:32.928Z,45.52
2018-08-09T09:58:37.991Z,44.87
2018-08-09T10:00:49.132Z,44.84
2018-08-09T10:02:55.404Z,44.73
2018-08-09T10:05:00.261Z,46.20
2018-08-09T10:07:05.288Z,46.74
2018-08-09T10:09:12.268Z,46.56
2018-08-09T10:11:17.052Z,46.50
2018-08-09T10:13:21.984Z,47.24
2018-08-09T10:15:27.003Z,46.93
2018-08-09T10:17:31.903Z,47.34
2018-08-09T10:19:36.706Z,46.56
2018-08-09T10:21:42.015Z,47.80
2018-08-09T10:23:46.767Z,48.05
2018-08-09T10:25:52.078Z,46.65
2018-08-09T10:27:59.051Z,47.18
2018-08-09T10:30:03.984Z,46.53
2018-08-09T10:32:08.729Z,46.83
2018-08-09T10:34:13.523Z,46.79
2018-08-09T10:36:18.245Z,46.76
2018-08-09T10:38:23.010Z,46.49
2018-08-09T10:40:27.803Z,46.77
2018-08-09T10:42:32.614Z,46.47
2018-08-09T10:44:37.416Z,45.96
2018-08-09T10:46:42.855Z,46.87
2018-08-09T10:48:47.818Z,45.77
2018-08-09T10:50:52.725Z,45.42
2018-08-09T10:52:57.468Z,44.52
2018-08-09T10:55:02.402Z,44.80
2018-08-09T10:57:07.524Z,44.19
2018-08-09T10:59:12.269Z,43.69
2018-08-09T11:01:17.180Z,42.72
2018-08-09T11:03:22.075Z,42.45
2018-08-09T11:05:27.625Z,42.05
2018-08-09T11:07:32.465Z,42.31
2018-08-09T11:09:38.606Z,43.00
2018-08-09T11:11:43.396Z,42.20
2018-08-09T11:13:54.183Z,42.01
2018-08-09T11:15:59.836Z,41.37
2018-08-09T11:18:05.451Z,40.38
2018-08-09T11:20:10.393Z,40.92
2018-08-09T11:22:15.155Z,40.36
2018-08-09T11:24:20.295Z,41.07
2018-08-09T11:26:25.255Z,40.35
2018-08-09T11:28:30.750Z,40.13
2018-08-09T11:30:36.646Z,40.19
2018-08-09T11:32:41.489Z,40.65
2018-08-09T11:34:46.632Z,39.49
2018-08-09T11:36:51.527Z,39.77
2018-08-09T11:38:56.391Z,39.81
2018-08-09T11:41:01.114Z,40.31
2018-08-09T11:43:05.999Z,39.48
2018-08-09T11:45:10.822Z,38.32
2018-08-09T11:47:15.684Z,39.68
2018-08-09T11:49:21.320Z,39.04
2018-08-09T11:51:26.652Z,38.92
2018-08-09T11:53:31.561Z,39.12
2018-08-09T11:55:36.664Z,38.91
2018-08-09T11:57:46.668Z,38.73
2018-08-09T11:59:53.295Z,38.94
2018-08-09T12:01:59.027Z,38.00
2018-08-09T12:04:04.014Z,38.37
2018-08-09T12:06:08.892Z,38.66
2018-08-09T12:08:13.629Z,39.90
2018-08-09T12:10:19.596Z,39.92
2018-08-09T12:12:24.437Z,39.57
2018-08-09T12:14:29.320Z,40.18
2018-08-09T12:16:34.784Z,41.14
2018-08-09T12:18:40.096Z,40.78
2018-08-09T12:20:45.118Z,40.81
2018-08-09T12:22:49.877Z,40.06
2018-08-09T12:24:54.654Z,40.80
2018-08-09T12:27:00.632Z,40.24
2018-08-09T12:29:05.952Z,41.34
2018-08-09T12:31:10.733Z,42.37
2018-08-09T12:33:15.939Z,42.25
2018-08-09T12:35:21.934Z,41.92
2018-08-09T12:37:27.364Z,41.45
2018-08-09T12:39:32.269Z,42.36
2018-08-09T12:41:37.389Z,43.21
2018-08-09T12:43:42.368Z,43.11
2018-08-09T12:45:47.501Z,43.31
2018-08-09T12:47:52.317Z,42.33
2018-08-09T12:49:57.178Z,42.55
2018-08-09T12:52:02.171Z,42.96
2018-08-09T12:54:06.944Z,44.13
2018-08-09T12:56:11.620Z,45.27
2018-08-09T12:58:16.655Z,48.10
2018-08-09T13:00:21.570Z,50.30
2018-08-09T13:02:27.301Z,49.78
2018-08-09T13:04:32.093Z,50.88
2018-08-09T13:06:36.863Z,51.17
2018-08-09T13:08:42.691Z,50.99
2018-08-09T13:10:47.655Z,50.42
2018-08-09T13:12:52.561Z,51.43
2018-08-09T13:14:57.877Z,50.75
2018-08-09T13:17:02.764Z,50.76
2018-08-09T13:19:07.841Z,50.96
2018-08-09T13:21:12.655Z,50.65
2018-08-09T13:23:17.494Z,50.38
2018-08-09T13:25:22.363Z,49.74
2018-08-09T13:27:27.348Z,47.29
2018-08-09T13:29:32.444Z,47.33
2018-08-09T13:31:37.456Z,44.67
2018-08-09T13:33:42.377Z,43.79
2018-08-09T13:35:48.371Z,43.14
2018-08-09T13:37:53.217Z,42.67
2018-08-09T13:39:57.992Z,42.39
2018-08-09T13:42:02.885Z,42.83
2018-08-09T13:44:08.310Z,42.51
2018-08-09T13:46:13.325Z,43.11
2018-08-09T13:48:18.095Z,41.88
2018-08-09T13:50:22.976Z,41.78
2018-08-09T13:52:27.965Z,42.29
2018-08-09T13:54:33.160Z,41.99
2018-08-09T13:56:38.039Z,42.64
2018-08-09T13:58:43.286Z,42.47
2018-08-09T14:00:50.083Z,42.54
2018-08-09T14:02:55.020Z,42.21
2018-08-09T14:05:01.188Z,42.39
2018-08-09T14:07:06.457Z,43.37
2018-08-09T14:09:13.968Z,43.72
2018-08-09T14:11:19.001Z,43.81
2018-08-09T14:13:23.842Z,44.33
2018-08-09T14:15:28.667Z,43.59
2018-08-09T14:17:34.242Z,44.29
2018-08-09T14:19:39.131Z,43.46
2018-08-09T14:21:44.030Z,43.32
2018-08-09T14:23:48.825Z,44.71
2018-08-09T14:25:53.613Z,45.63
2018-08-09T14:27:59.706Z,45.71
2018-08-09T14:30:05.338Z,45.66
2018-08-09T14:32:10.246Z,45.87
2018-08-09T14:34:15.829Z,46.15
2018-08-09T14:36:20.619Z,46.65
2018-08-09T14:38:25.513Z,46.45
2018-08-09T14:40:30.827Z,48.11
2018-08-09T14:42:35.827Z,48.86
2018-08-09T14:44:40.601Z,48.05
2018-08-09T14:46:45.444Z,48.66
2018-08-09T14:48:50.449Z,47.75
2018-08-09T14:50:55.387Z,48.51
2018-08-09T14:53:00.948Z,48.12
2018-08-09T14:55:07.371Z,48.58
2018-08-09T14:57:12.416Z,49.04
2018-08-09T14:59:17.235Z,49.77
2018-08-09T15:01:21.980Z,50.19
2018-08-09T15:03:27.183Z,49.75
2018-08-09T15:05:32.575Z,50.01
2018-08-09T15:07:37.470Z,50.64
2018-08-09T15:09:42.717Z,51.41
2018-08-09T15:11:48.786Z,50.84
2018-08-09T15:13:53.628Z,51.32
2018-08-09T15:15:58.647Z,52.01
2018-08-09T15:18:03.479Z,51.49
2018-08-09T15:20:12.557Z,51.69
2018-08-09T15:22:17.436Z,51.31
2018-08-09T15:24:22.255Z,51.35
2018-08-09T15:26:27.448Z,51.21
2018-08-09T15:28:32.314Z,51.55
2018-08-09T15:30:37.211Z,51.75
2018-08-09T15:32:42.903Z,51.92
2018-08-09T15:34:47.825Z,51.17
2018-08-09T15:36:54.829Z,51.51
2018-08-09T15:38:59.582Z,52.15
2018-08-09T15:41:04.671Z,51.28
2018-08-09T15:43:10.058Z,51.29
2018-08-09T15:45:16.584Z,51.36
2018-08-09T15:47:22.287Z,51.20
2018-08-09T15:49:29.452Z,51.16
2018-08-09T15:51:35.117Z,50.63
2018-08-09T15:53:42.135Z,49.29
2018-08-09T15:55:47.080Z,49.31
2018-08-09T15:57:51.976Z,48.35
2018-08-09T15:59:57.939Z,48.05
2018-08-09T16:02:02.797Z,47.71
2018-08-09T16:04:07.855Z,48.17
2018-08-09T16:06:13.803Z,47.37
2018-08-09T16:08:18.780Z,48.10
2018-08-09T16:10:24.391Z,48.03
2018-08-09T16:12:29.187Z,48.18
2018-08-09T16:14:34.592Z,48.25
2018-08-09T16:16:39.549Z,48.44
2018-08-09T16:18:44.822Z,48.93
2018-08-09T16:20:49.790Z,48.54
2018-08-09T16:22:54.810Z,48.20
2018-08-09T16:24:59.713Z,49.10
2018-08-09T16:27:04.753Z,48.39
2018-08-09T16:29:09.942Z,48.95
2018-08-09T16:31:15.909Z,49.03
2018-08-09T16:33:20.595Z,48.02
2018-08-09T16:35:25.537Z,48.31
2018-08-09T16:37:30.757Z,48.40
2018-08-09T16:39:35.653Z,47.81
2018-08-09T16:41:40.848Z,47.14
2018-08-09T16:43:45.742Z,47.70
2018-08-09T16:45:50.486Z,47.15
2018-08-09T16:47:56.519Z,46.94
2018-08-09T16:50:01.426Z,46.70
2018-08-09T16:52:07.228Z,46.38
2018-08-09T16:54:12.027Z,47.85
2018-08-09T16:56:16.862Z,47.19
2018-08-09T16:58:21.728Z,47.12
2018-08-09T17:00:26.698Z,46.73
2018-08-09T17:02:32.515Z,46.61
2018-08-09T17:04:37.858Z,45.04
2018-08-09T17:06:43.017Z,44.98
2018-08-09T17:08:47.891Z,44.76
2018-08-09T17:10:52.797Z,44.39
2018-08-09T17:12:58.617Z,44.00
2018-08-09T17:15:03.553Z,45.37
2018-08-09T17:17:08.354Z,45.54
2018-08-09T17:19:13.341Z,45.37
2018-08-09T17:21:19.434Z,45.62
2018-08-09T17:23:24.223Z,46.29
2018-08-09T17:25:39.339Z,47.10
2018-08-09T17:27:45.398Z,47.19
2018-08-09T17:29:50.266Z,47.96
2018-08-09T17:31:55.494Z,48.02
2018-08-09T17:34:00.375Z,46.49
2018-08-09T17:36:05.185Z,47.83
2018-08-09T17:38:10.109Z,47.46
2018-08-09T17:40:31.507Z,47.81
2018-08-09T17:42:37.025Z,48.67
2018-08-09T17:44:41.893Z,48.94
2018-08-09T17:46:46.913Z,48.88
2018-08-09T17:48:51.972Z,50.83
2018-08-09T17:50:56.834Z,53.25
2018-08-09T17:53:03.326Z,54.74
2018-08-09T17:55:11.937Z,55.37
2018-08-09T17:57:16.839Z,56.25
2018-08-09T17:59:21.709Z,58.14
2018-08-09T18:01:26.554Z,59.19
2018-08-09T18:03:31.492Z,59.80
2018-08-09T18:05:36.388Z,59.04
2018-08-09T18:07:41.199Z,59.95
2018-08-09T18:09:46.155Z,60.60
2018-08-09T18:11:50.958Z,60.90
2018-08-09T18:13:55.928Z,60.80
2018-08-09T18:16:00.896Z,61.16
2018-08-09T18:18:06.150Z,61.52
2018-08-09T18:22:53.117Z,60.44
2018-08-09T18:24:58.354Z,62.44
2018-08-09T18:27:03.797Z,62.03
2018-08-09T18:29:08.701Z,61.47
2018-08-09T18:31:13.527Z,61.50
2018-08-09T18:33:18.299Z,61.19
2018-08-09T18:35:23.145Z,62.33
2018-08-09T18:37:29.186Z,62.46
2018-08-09T18:39:34.046Z,62.34
2018-08-09T18:41:38.891Z,63.37
2018-08-09T18:43:43.915Z,63.09
2018-08-09T18:45:48.978Z,62.68
2018-08-09T18:47:53.910Z,63.59
2018-08-09T18:49:59.432Z,62.73
2018-08-09T18:52:04.961Z,62.64
2018-08-09T18:54:10.684Z,63.09
2018-08-09T18:56:15.936Z,63.75
2018-08-09T18:58:21.364Z,63.03
2018-08-09T19:00:28.489Z,63.74
2018-08-09T19:02:33.790Z,63.18
2018-08-09T19:04:38.897Z,63.24
2018-08-09T19:06:44.009Z,63.45
2018-08-09T19:08:49.196Z,62.40
2018-08-09T19:10:54.915Z,62.94
2018-08-09T19:13:00.078Z,62.88
2018-08-09T19:15:05.775Z,63.19
2018-08-09T19:17:10.788Z,61.93
2018-08-09T19:19:15.864Z,61.55
2018-08-09T19:21:21.862Z,61.37
2018-08-09T19:23:29.312Z,62.20
2018-08-09T19:25:36.279Z,61.21
2018-08-09T19:27:44.400Z,61.37
2018-08-09T19:29:50.901Z,62.07
2018-08-09T19:31:56.855Z,62.39
2018-08-09T19:34:02.518Z,60.84
2018-08-09T19:36:10.496Z,61.11
2018-08-09T19:38:18.568Z,61.40
2018-08-09T19:40:31.528Z,61.37
2018-08-09T19:42:41.108Z,61.34
2018-08-09T19:44:48.543Z,61.65
2018-08-09T19:46:56.637Z,62.07
2018-08-09T19:49:06.201Z,62.35
2018-08-09T19:51:15.589Z,62.15
2018-08-09T19:53:26.071Z,62.40
2018-08-09T19:55:36.174Z,61.71
2018-08-09T19:57:46.408Z,61.26
2018-08-09T19:59:55.367Z,61.18
2018-08-09T20:02:05.729Z,61.28
2018-08-09T20:04:14.874Z,61.45
2018-08-09T20:06:24.532Z,60.73
2018-08-09T20:08:34.198Z,60.83
2018-08-09T20:10:44.079Z,60.97
2018-08-09T20:12:54.579Z,61.73
2018-08-09T20:15:04.076Z,61.57
2018-08-09T20:17:12.969Z,62.21
2018-08-09T20:19:23.298Z,60.97
2018-08-09T20:21:34.105Z,61.27
2018-08-09T20:23:43.540Z,60.40
2018-08-09T20:25:53.733Z,59.62
2018-08-09T20:28:02.853Z,59.74
2018-08-09T20:30:14.698Z,60.64
2018-08-09T20:32:19.768Z,60.25
2018-08-09T20:34:25.463Z,59.73
2018-08-09T20:36:31.031Z,60.77
2018-08-09T20:38:36.597Z,60.97
2018-08-09T20:40:42.197Z,61.43
2018-08-09T20:42:53.995Z,62.05
2018-08-09T20:44:59.442Z,61.06
2018-08-09T20:47:05.849Z,62.92
2018-08-09T20:49:14.108Z,62.17
2018-08-09T20:51:21.431Z,60.93
2018-08-09T20:53:27.956Z,61.14
2018-08-09T20:55:34.372Z,61.06
2018-08-09T20:57:41.079Z,61.70
2018-08-09T20:59:48.520Z,61.81
2018-08-09T21:01:53.825Z,62.16
2018-08-09T21:04:33.628Z,62.48
2018-08-09T21:06:39.073Z,63.29
2018-08-09T21:08:45.073Z,63.28
2018-08-09T21:10:50.853Z,63.22
2018-08-09T21:12:56.476Z,63.43
2018-08-09T21:15:01.651Z,64.45
2018-08-09T21:17:06.966Z,64.03
2018-08-09T21:19:11.912Z,63.31
2018-08-09T21:21:16.953Z,64.39
2018-08-09T21:23:22.273Z,64.45
2018-08-09T21:25:27.769Z,63.88
2018-08-09T21:27:32.980Z,64.88
2018-08-09T21:29:38.153Z,64.50
2018-08-09T21:31:42.988Z,63.83
2018-08-09T21:33:48.292Z,65.20
2018-08-09T21:35:53.277Z,65.44
2018-08-09T21:37:58.413Z,64.88
2018-08-09T21:40:03.430Z,64.71
2018-08-09T21:42:08.549Z,64.56
2018-08-09T21:44:14.035Z,64.00
2018-08-09T21:46:18.934Z,64.50
2018-08-09T21:48:23.799Z,65.38
2018-08-09T21:50:28.791Z,65.26
2018-08-09T21:52:33.746Z,64.85
2018-08-09T21:54:38.744Z,64.34
2018-08-09T21:56:43.712Z,64.25
2018-08-09T21:58:48.644Z,64.80
2018-08-09T22:01:00.970Z,64.96
2018-08-09T22:03:06.238Z,65.46
2018-08-09T22:05:16.187Z,66.46
2018-08-09T22:07:26.243Z,68.40
2018-08-09T22:09:36.116Z,68.71
2018-08-09T22:11:46.019Z,69.22
2018-08-09T22:13:56.214Z,70.15
2018-08-09T22:16:06.021Z,71.31
2018-08-09T22:18:16.082Z,70.74
2018-08-09T22:20:26.116Z,69.81
2018-08-09T22:22:31.714Z,69.78
2018-08-09T22:24:36.593Z,71.17
2018-08-09T22:26:42.664Z,70.93
2018-08-09T22:28:47.786Z,70.44
2018-08-09T22:30:52.845Z,71.39
2018-08-09T22:32:57.993Z,71.00
2018-08-09T22:35:03.027Z,71.29
2018-08-09T22:37:07.840Z,70.29
2018-08-09T22:39:12.788Z,70.91
2018-08-09T22:41:17.643Z,71.22
2018-08-09T22:43:22.684Z,70.73
2018-08-09T22:45:27.728Z,71.37
2018-08-09T22:47:32.754Z,71.25
2018-08-09T22:49:37.838Z,71.08
2018-08-09T22:51:42.932Z,73.00
2018-08-09T22:53:47.908Z,72.86
2018-08-09T22:55:52.831Z,73.08
2018-08-09T22:57:57.859Z,73.17
2018-08-09T23:00:03.048Z,73.88
2018-08-09T23:02:08.102Z,74.63
2018-08-09T23:04:13.191Z,73.90
2018-08-09T23:06:18.100Z,72.93
2018-08-09T23:08:23.108Z,72.50
2018-08-09T23:10:28.090Z,73.17
2018-08-09T23:12:33.109Z,71.90
2018-08-09T23:14:38.155Z,71.17
2018-08-09T23:16:43.202Z,71.97
2018-08-09T23:18:48.211Z,71.26
2018-08-09T23:20:53.192Z,70.90
2018-08-09T23:22:58.299Z,71.33
2018-08-09T23:25:03.400Z,70.99
2018-08-09T23:27:08.405Z,71.49
2018-08-09T23:29:13.270Z,72.13
2018-08-09T23:31:18.235Z,72.41
2018-08-09T23:33:24.671Z,71.64
2018-08-09T23:35:29.811Z,71.67
2018-08-09T23:37:35.026Z,71.46
2018-08-09T23:39:40.077Z,72.12
2018-08-09T23:41:45.421Z,72.12
2018-08-09T23:43:50.220Z,71.50
2018-08-09T23:45:55.176Z,69.95
2018-08-09T23:48:00.202Z,69.19
2018-08-09T23:50:05.429Z,70.17
2018-08-09T23:52:10.382Z,69.89
2018-08-09T23:54:15.270Z,70.94
2018-08-09T23:56:20.185Z,69.81
2018-08-09T23:58:25.088Z,67.18
